Latest Weather Observations for Beerburrum

IDQ60901

Issued at 6:01 pm EST Tuesday 28 February 2017 (issued every 10 minutes, with the page automatically refreshed every 10 minutes)

About weather observations | Map of Brisbane area stations | Latest observations for Brisbane area | Other Formats
Station Details ID: 040284 Name: BEERBURRUM FOREST STATION Lat: -26.96 Lon: 152.96 Height: 48.0 m
Data from the previous 72 hours. | See also: Recent months at Beerburrum
Date/Time
EST
Temp
°C
App
Temp
°C
Dew
Point
°C
Rel
Hum
%
Delta-T
°C
Wind Press
QNH
hPa
Press
MSL
hPa
Rain since
9am
mm
Dir  Spd
km/h
Gust
km/h
Spd
kts
Gust
kts
28/06:00pm 25.5 27.2 19.4 69 3.9 E 9 17 5 9 - - 0.0
28/05:30pm 26.2 28.2 18.8 63 4.7 S 6 13 3 7 - - 0.0
28/05:00pm 26.3 28.3 18.7 63 4.9 ESE 6 19 3 10 - - 0.0
28/04:30pm 26.7 28.5 18.3 60 5.3 SE 6 11 3 6 - - 0.0
28/04:00pm 27.1 28.5 17.8 56 5.9 E 7 13 4 7 - - 0.0
28/03:30pm 27.7 28.7 16.9 51 6.8 SE 7 17 4 9 - - 0.0
28/03:00pm 29.2 30.4 18.3 51 7.0 ESE 9 15 5 8 - - 0.0
28/02:30pm 28.5 28.7 16.7 48 7.4 SE 11 19 6 10 - - 0.0
28/02:00pm 29.0 29.8 17.2 49 7.4 SSE 9 17 5 9 - - 0.0
28/01:30pm 29.7 30.6 17.5 48 7.7 SE 9 17 5 9 - - 0.0
28/01:00pm 30.1 31.2 17.9 48 7.8 SE 9 17 5 9 - - 0.0
28/12:30pm 28.7 29.5 17.2 49 7.2 SE 9 17 5 9 - - 0.0
28/12:00pm 29.4 30.3 17.6 49 7.5 S 9 20 5 11 - - 0.0
28/11:30am 27.8 28.1 17.0 51 6.8 SSE 11 20 6 11 - - 0.0
28/11:00am 27.0 28.6 17.8 57 5.8 SE 6 13 3 7 - - 0.0
28/10:30am 26.5 26.9 16.4 53 6.2 S 9 17 5 9 - - 0.0
28/10:00am 26.1 27.0 16.6 55 5.9 SSW 7 15 4 8 - - 0.0
28/09:30am 26.3 27.6 17.6 58 5.5 SW 7 15 4 8 - - 0.0
28/09:00am 26.0 27.3 17.6 60 5.3 S 7 17 4 9 - - 0.0
28/08:30am 24.5 25.0 16.5 61 4.9 S 9 17 5 9 - - 0.0
28/08:00am 23.9 24.7 16.4 63 4.6 S 7 15 4 8 - - 0.0
28/07:30am 23.0 24.1 16.5 67 4.0 SW 6 13 3 7 - - 0.0
28/07:00am 21.2 22.4 16.8 76 2.7 SW 6 7 3 4 - - 0.0
28/06:30am 18.7 20.0 16.1 85 1.5 S 4 6 2 3 - - 0.0
28/06:00am 18.0 19.1 15.6 86 1.4 SW 4 6 2 3 - - 0.0
28/05:30am 18.2 19.3 15.6 85 1.5 SW 4 7 2 4 - - 0.0
28/05:00am 18.5 19.6 15.7 84 1.7 SW 4 7 2 4 - - 0.0
28/04:30am 18.7 19.9 15.9 84 1.7 SW 4 6 2 3 - - 0.0
28/04:00am 18.8 20.2 16.4 86 1.4 SW 4 6 2 3 - - 0.0
28/03:30am 18.2 20.0 15.6 85 1.5 CALM 0 6 0 3 - - 0.0
28/03:00am 18.7 20.7 15.9 84 1.7 CALM 0 0 0 0 - - 0.0
28/02:30am 19.2 21.5 16.8 86 1.5 CALM 0 4 0 2 - - 0.0
28/02:00am 18.4 20.5 16.2 87 1.3 CALM 0 0 0 0 - - 0.0
28/01:30am 18.8 20.9 16.2 85 1.6 CALM 0 0 0 0 - - 0.0
28/01:00am 19.2 21.4 16.4 84 1.7 CALM 0 0 0 0 - - 0.0
28/12:30am 19.6 21.8 16.6 83 1.8 CALM 0 0 0 0 - - 0.0
28/12:00am 20.1 21.7 16.9 82 1.9 SW 4 9 2 5 - - 0.0
 
Date/Time
EST
Temp
°C
App
Temp
°C
Dew
Point
°C
Rel
Hum
%
Delta-T
°C
Wind Press
QNH
hPa
Press
MSL
hPa
Rain since
9am
mm
Dir  Spd
km/h
Gust
km/h
Spd
kts
Gust
kts
27/11:30pm 20.1 21.5 17.3 84 1.7 SSW 6 9 3 5 - - 0.0
27/11:00pm 19.3 20.9 16.9 86 1.5 SW 4 6 2 3 - - 0.0
27/10:30pm 19.6 21.9 16.8 84 1.7 CALM 0 0 0 0 - - 0.0
27/10:00pm 20.3 22.0 17.1 82 2.0 SW 4 7 2 4 - - 0.0
27/09:30pm 20.8 23.2 17.0 79 2.3 CALM 0 6 0 3 - - 0.0
27/09:00pm 22.0 23.4 17.8 77 2.6 S 7 13 4 7 - - 0.0
27/08:30pm 22.4 23.9 18.0 76 2.7 S 7 13 4 7 - - 0.0
27/08:00pm 21.8 23.2 17.4 76 2.7 SSW 6 11 3 6 - - 0.0
27/07:30pm 21.7 23.5 17.3 76 2.7 SW 4 11 2 6 - - 0.0
27/07:00pm 22.0 23.3 17.2 74 3.0 SSW 6 9 3 5 - - 0.0
27/06:30pm 22.6 23.9 17.1 71 3.4 S 6 11 3 6 - - 0.0
27/06:00pm 23.4 24.4 16.9 67 4.0 S 7 19 4 10 - - 0.0
27/05:30pm 24.1 24.7 16.9 64 4.4 SSE 9 20 5 11 - - 0.0
27/05:00pm 25.4 26.5 17.1 60 5.2 SE 7 17 4 9 - - 0.0
27/04:30pm 24.5 24.7 16.7 61 4.8 SSE 11 24 6 13 - - 0.0
27/04:00pm 25.3 25.3 15.3 54 6.0 SSE 9 22 5 12 - - 0.0
27/03:30pm 24.8 25.9 17.0 62 4.8 SSE 7 15 4 8 - - 0.0
27/03:00pm 25.5 25.4 16.1 56 5.8 SE 11 20 6 11 - - 0.0
27/02:30pm 27.0 27.5 17.5 56 6.0 SSE 11 24 6 13 - - 0.0
27/02:00pm 26.2 26.9 17.0 57 5.7 SE 9 17 5 9 - - 0.0
27/01:30pm 25.9 25.5 15.3 52 6.4 ESE 11 24 6 13 - - 0.0
27/01:00pm 27.3 27.9 16.9 53 6.5 SE 9 19 5 10 - - 0.0
27/12:30pm 27.5 28.2 17.1 53 6.5 SE 9 17 5 9 - - 0.0
27/12:00pm 26.6 27.4 18.2 60 5.3 SE 11 22 6 12 - - 0.0
27/11:30am 25.2 26.1 18.4 66 4.3 SSE 11 19 6 10 - - 0.0
27/11:00am 22.6 24.1 19.0 80 2.3 S 9 22 5 12 - - 0.0
27/10:30am 23.8 25.2 17.8 69 3.8 S 7 11 4 6 - - 0.0
27/10:00am 23.6 24.7 18.0 71 3.5 S 9 13 5 7 - - 0.0
27/09:30am 23.5 24.9 17.9 71 3.5 S 7 13 4 7 - - 0.0
27/09:00am 23.2 24.3 18.1 73 3.2 SSE 9 20 5 11 - - 0.0
27/08:30am 23.3 24.2 17.5 70 3.6 S 9 17 5 9 - - 0.0
27/08:00am 23.9 25.0 18.1 70 3.6 S 9 17 5 9 - - 0.0
27/07:30am 21.9 22.5 16.8 73 3.1 SSW 9 17 5 9 - - 0.0
27/07:00am 21.1 22.4 17.5 80 2.2 SW 7 11 4 6 - - 0.0
27/06:30am 19.8 20.8 16.4 81 2.0 SW 6 9 3 5 - - 0.0
27/06:00am 19.8 20.9 16.6 82 1.9 SW 6 7 3 4 - - 0.0
27/05:30am 19.7 21.9 16.5 82 1.9 CALM 0 0 0 0 - - 0.0
27/05:00am 19.2 21.0 16.4 84 1.7 WSW 2 6 1 3 - - 0.0
27/04:30am 19.1 20.0 16.1 83 1.8 SW 6 7 3 4 - - 0.0
27/04:00am 19.6 21.1 16.6 83 1.8 WSW 4 7 2 4 - - 0.0
27/03:30am 19.9 22.3 16.9 83 1.8 CALM 0 6 0 3 - - 0.0
27/03:00am 20.2 22.2 17.0 82 1.9 SW 2 6 1 3 - - 0.0
27/02:30am 20.2 22.5 16.8 81 2.1 CALM 0 0 0 0 - - 0.0
27/02:00am 20.6 23.1 17.2 81 2.1 CALM 0 0 0 0 - - 0.0
27/01:30am 20.6 22.5 16.8 79 2.3 SW 2 6 1 3 - - 0.0
27/01:00am 21.1 22.8 17.1 78 2.4 SW 4 9 2 5 - - 0.0
27/12:30am 21.2 22.4 16.8 76 2.7 SW 6 11 3 6 - - 0.0
27/12:00am 22.4 23.3 17.5 74 3.0 S 9 17 5 9 - - 0.0
 
Date/Time
EST
Temp
°C
App
Temp
°C
Dew
Point
°C
Rel
Hum
%
Delta-T
°C
Wind Press
QNH
hPa
Press
MSL
hPa
Rain since
9am
mm
Dir  Spd
km/h
Gust
km/h
Spd
kts
Gust
kts
26/11:30pm 21.7 23.2 17.5 77 2.6 SW 6 13 3 7 - - 0.0
26/11:00pm 22.0 23.6 17.8 77 2.6 SSW 6 13 3 7 - - 0.0
26/10:30pm 22.2 24.9 17.8 76 2.7 CALM 0 0 0 0 - - 0.0
26/10:00pm 22.7 24.2 17.6 73 3.2 S 6 9 3 5 - - 0.0
26/09:30pm 23.6 25.1 18.0 71 3.5 S 7 13 4 7 - - 0.0
26/09:00pm 24.2 25.8 18.2 69 3.8 S 7 13 4 7 - - 0.0
26/08:30pm 24.5 25.6 18.0 67 4.1 S 9 19 5 10 - - 0.0
26/08:00pm 24.1 25.6 17.6 67 4.1 S 6 11 3 6 - - 0.0
26/07:30pm 24.6 25.5 17.6 65 4.4 S 9 19 5 10 - - 0.0
26/07:00pm 24.8 25.4 17.8 65 4.4 S 11 20 6 11 - - 0.0
26/06:30pm 24.5 25.0 16.5 61 4.9 SSE 9 19 5 10 - - 0.0
26/06:00pm 25.1 24.9 15.7 56 5.7 SSE 11 24 6 13 - - 0.0
26/05:30pm 26.0 25.8 15.7 53 6.3 SSE 11 30 6 16 - - 0.0
26/05:00pm 26.7 26.8 16.6 54 6.3 SSE 11 22 6 12 - - 0.0
26/04:30pm 27.7 27.2 15.0 45 7.7 SE 11 24 6 13 - - 0.0
26/04:00pm 28.6 28.2 15.2 44 8.2 SE 11 26 6 14 - - 0.0
26/03:30pm 29.4 29.4 16.2 44 8.2 E 11 20 6 11 - - 0.0
26/03:00pm 29.2 28.7 15.0 42 8.7 E 11 26 6 14 - - 0.0
26/02:30pm 28.0 27.0 13.5 41 8.6 SSE 11 22 6 12 - - 0.0
26/02:00pm 28.2 27.8 15.1 44 8.0 SE 11 22 6 12 - - 0.0
26/01:30pm 28.3 28.4 17.5 52 6.8 SSE 13 24 7 13 - - 0.0
26/01:00pm 27.8 27.6 16.7 50 6.9 SSE 13 26 7 14 - - 0.0
26/12:30pm 27.8 27.8 17.3 52 6.6 SE 13 24 7 13 - - 0.0
26/12:00pm 28.3 28.7 18.1 54 6.5 SSE 13 26 7 14 - - 0.0
26/11:30am 27.3 27.6 17.8 56 6.0 SSE 13 26 7 14 - - 0.0
26/11:00am 27.9 28.9 19.4 60 5.5 SSE 13 24 7 13 - - 0.0
26/10:30am 26.7 27.8 18.8 62 5.1 S 11 24 6 13 - - 0.0
26/10:00am 26.6 27.4 18.2 60 5.3 S 11 17 6 9 - - 0.0
26/09:30am 26.1 26.8 18.0 61 5.1 S 11 22 6 12 - - 0.0
26/09:00am 26.0 26.8 18.2 62 4.9 S 11 19 6 10 - - 0.0
26/08:30am 25.7 26.6 17.6 61 5.1 SSE 9 19 5 10 - - 0.0
26/08:00am 24.8 25.4 17.8 65 4.4 S 11 22 6 12 - - 0.0
26/07:30am 23.4 25.1 18.1 72 3.3 S 6 9 3 5 - - 0.0
26/07:00am 21.3 23.4 18.1 82 2.0 SW 4 7 2 4 - - 0.0
26/06:30am 20.8 22.4 17.0 79 2.3 SW 4 7 2 4 - - 0.0
26/06:00am 20.1 22.4 16.7 81 2.1 CALM 0 0 0 0 - - 0.0
26/05:30am 19.4 21.6 16.6 84 1.7 CALM 0 4 0 2 - - 0.0
26/05:00am 19.2 21.0 16.4 84 1.7 SW 2 6 1 3 - - 0.0
26/04:30am 18.8 20.8 16.0 84 1.7 CALM 0 0 0 0 - - 0.0
26/04:00am 18.9 20.8 15.8 82 1.8 CALM 0 0 0 0 - - 0.0
26/03:30am 19.4 21.4 16.1 81 2.0 CALM 0 4 0 2 - - 0.0
26/03:00am 19.8 21.2 16.3 80 2.1 SW 4 7 2 4 - - 0.0
26/02:30am 19.8 22.1 16.8 83 1.8 CALM 0 0 0 0 - - 0.0
26/02:00am 19.7 21.4 16.2 80 2.1 WSW 2 6 1 3 - - 0.0
26/01:30am 20.1 21.8 16.1 78 2.4 SW 2 6 1 3 - - 0.0
26/01:00am 20.4 21.3 16.2 77 2.5 SSW 6 9 3 5 - - 0.0
26/12:30am 20.4 21.5 16.6 79 2.3 SW 6 13 3 7 - - 0.0
26/12:00am 20.1 21.8 16.3 79 2.3 SSW 2 7 1 4 - - 0.0
 
Date/Time
EST
Temp
°C
App
Temp
°C
Dew
Point
°C
Rel
Hum
%
Delta-T
°C
Wind Press
QNH
hPa
Press
MSL
hPa
Rain since
9am
mm
Dir  Spd
km/h
Gust
km/h
Spd
kts
Gust
kts
25/11:30pm 20.2 21.2 16.4 79 2.3 SW 6 7 3 4 - - 0.0
25/11:00pm 20.4 22.2 16.4 78 2.4 SW 2 7 1 4 - - 0.0
25/10:30pm 21.2 22.7 16.6 75 2.8 SSW 4 7 2 4 - - 0.0
25/10:00pm 22.6 23.6 16.9 70 3.5 SSW 7 13 4 7 - - 0.0
25/09:30pm 22.9 24.0 17.1 70 3.6 S 7 13 4 7 - - 0.0
25/09:00pm 23.6 25.0 17.3 67 3.9 S 6 15 3 8 - - 0.0
25/08:30pm 24.2 25.3 17.2 65 4.3 S 7 17 4 9 - - 0.0
25/08:00pm 24.6 25.6 16.8 62 4.8 S 7 15 4 8 - - 0.0
25/07:30pm 24.6 25.9 17.1 63 4.7 SSE 6 11 3 6 - - 0.0
25/07:00pm 24.5 26.7 17.5 65 4.4 S 2 9 1 5 - - 0.0
25/06:30pm 25.0 27.3 17.7 64 4.6 ESE 2 13 1 7 - - 0.0

Latest Capital City Observations: Canberra | Sydney | Melbourne | Brisbane | Adelaide | Perth | Hobart | Darwin

Other Formats:

Comma delimited format used in spreadsheet applications
http://www.bom.gov.au/fwo/IDQ60901/IDQ60901.95566.axf

JavaScript Object Notation format (JSON) in row-major order
http://www.bom.gov.au/fwo/IDQ60901/IDQ60901.95566.json